Date,TemperatureHighF,TemperatureAvgF,TemperatureLowF,DewpointHighF,DewpointAvgF,DewpointLowF,HumidityHigh,HumidityAvg,HumidityLow,PressureMaxIn,PressureMinIn,WindSpeedMaxMPH,WindSpeedAvgMPH,GustSpeedMaxMPH,PrecipitationSumIn
2013-2-1,30,28,23,25,21,17,89,75,62,0.00,40.00,19,12,27,0.00
2013-2-2,41,22,5,20,14,2,89,72,41,0.00,40.00,9,3,11,0.00
2013-2-3,35,22,0,18,10,-4,88,64,45,0.00,40.00,19,9,25,0.00
2013-2-4,32,30,27,24,20,15,78,68,54,0.00,40.00,20,12,27,0.00
2013-2-5,37,31,22,25,22,17,93,70,47,0.00,40.00,16,7,24,0.00
2013-2-6,30,22,8,24,15,2,91,74,55,0.00,40.00,15,7,21,0.00
2013-2-7,35,15,4,13,7,0,86,74,30,0.00,40.00,3,0,6,0.00
2013-2-8,28,19,2,18,12,-2,87,73,60,0.00,40.00,9,3,12,0.00
2013-2-9,25,20,18,17,14,11,91,77,59,0.00,40.00,10,4,12,0.00
2013-2-10,23,13,-8,17,8,-13,91,81,58,0.00,40.00,9,3,14,0.00
2013-2-11,25,13,-5,15,7,-10,89,78,65,0.00,40.00,9,3,12,0.00
2013-2-12,28,25,18,21,19,13,81,77,72,0.00,40.00,19,11,26,0.00
2013-2-13,32,29,25,23,20,14,80,70,57,0.00,40.00,24,11,30,0.00
2013-2-14,26,24,21,20,17,14,90,74,64,0.00,40.00,19,13,25,0.00
2013-2-15,35,28,21,23,20,14,82,72,61,0.00,40.00,12,7,17,0.00
2013-2-16,42,25,6,25,17,3,92,74,50,0.00,40.00,20,5,30,0.00
2013-2-17,26,22,17,23,16,10,90,79,71,0.00,40.00,15,8,19,0.00
2013-2-18,30,19,13,13,9,5,84,67,39,0.00,40.00,6,2,7,0.00
2013-2-19,32,24,13,18,12,7,86,60,34,0.00,40.00,14,3,16,0.00
2013-2-20,25,20,14,20,15,10,91,81,65,0.00,40.00,8,3,10,0.00
2013-2-21,22,13,-8,14,6,-13,88,72,52,0.00,40.00,13,6,18,0.00
2013-2-22,29,23,14,20,14,7,82,70,56,0.00,40.00,22,12,29,0.00
2013-2-23,28,20,17,23,13,7,92,74,56,0.00,40.00,17,9,21,0.00
2013-2-24,24,19,14,12,10,8,79,68,58,0.00,40.00,17,8,22,0.00
2013-2-25,28,18,5,21,12,1,88,77,56,0.00,40.00,18,8,27,0.00
2013-2-26,23,19,13,13,11,6,82,71,60,0.00,40.00,17,8,19,0.00
2013-2-27,30,18,0,15,6,-4,85,63,42,0.00,40.00,21,7,26,0.00
2013-2-28,32,28,17,27,21,6,93,74,56,0.00,40.00,14,7,19,0.00